Time;durP1;ratioP1;P1;durP2;ratioP2;P2;SDS_P1;SDS_P2;PMS_P1;PMS_P2;Temp;Humidity;BMP_temperature;BMP_pressure;BME280_temperature;BME280_humidity;BME280_pressure;Samples;Min_cycle;Max_cycle;Signal;HPM_P1;HPM_P2
2023/01/22 00:01:26;;;;;;;29.70;20.10;;;;;;;-2.87;100.00;103173.03;5056445;28;20033;-64
2023/01/22 00:03:53;;;;;;;30.93;20.50;;;;;;;-2.86;100.00;103179.00;5050079;28;20024;-64
2023/01/22 00:06:19;;;;;;;28.07;19.37;;;;;;;-2.86;100.00;103181.56;5048961;28;20108;-64
2023/01/22 00:08:45;;;;;;;30.80;19.57;;;;;;;-2.85;100.00;103168.13;5050925;28;20112;-64
2023/01/22 00:11:11;;;;;;;29.67;19.23;;;;;;;-2.83;100.00;103171.78;5054242;28;20029;-64
2023/01/22 00:13:36;;;;;;;26.50;18.37;;;;;;;-2.83;100.00;103174.31;5059364;28;20036;-64
2023/01/22 00:16:01;;;;;;;26.50;18.77;;;;;;;-2.80;100.00;103179.75;5061678;28;20063;-63
2023/01/22 00:18:26;;;;;;;27.63;18.87;;;;;;;-2.79;100.00;103184.13;5049154;28;20373;-64
2023/01/22 00:20:53;;;;;;;27.80;18.50;;;;;;;-2.77;100.00;103185.25;5049364;28;20077;-64
2023/01/22 00:23:19;;;;;;;34.33;20.27;;;;;;;-2.76;100.00;103189.59;5049722;28;20647;-64
2023/01/22 00:25:45;;;;;;;32.27;20.57;;;;;;;-2.74;100.00;103188.16;5049102;28;20115;-64
2023/01/22 00:28:11;;;;;;;29.97;20.10;;;;;;;-2.74;100.00;103188.16;5055431;28;20118;-64
2023/01/22 00:30:37;;;;;;;29.67;20.60;;;;;;;-2.73;100.00;103179.81;5046884;28;20319;-64
2023/01/22 00:33:03;;;;;;;31.20;20.40;;;;;;;-2.74;100.00;103172.91;5060451;28;20387;-64
2023/01/22 00:35:28;;;;;;;28.27;19.37;;;;;;;-2.76;100.00;103174.34;5052499;28;20398;-64
2023/01/22 00:37:53;;;;;;;33.60;19.73;;;;;;;-2.76;100.00;103164.19;5057660;28;20052;-64
2023/01/22 00:40:19;;;;;;;33.60;21.23;;;;;;;-2.78;100.00;103163.09;5050023;28;20112;-64
2023/01/22 00:42:44;;;;;;;30.30;20.47;;;;;;;-2.78;100.00;103175.78;5050981;28;20473;-64
2023/01/22 00:45:12;;;;;;;29.07;19.03;;;;;;;-2.80;100.00;103173.06;5053021;28;20067;-64
2023/01/22 00:47:37;;;;;;;29.37;20.43;;;;;;;-2.83;100.00;103166.69;5057751;28;20156;-64
2023/01/22 00:50:03;;;;;;;30.87;21.10;;;;;;;-2.84;100.00;103164.88;5048490;28;20044;-63
2023/01/22 00:52:28;;;;;;;31.37;22.77;;;;;;;-2.85;100.00;103165.59;5048202;28;20041;-64
2023/01/22 00:54:53;;;;;;;30.53;20.20;;;;;;;-2.86;100.00;103171.41;5052550;28;20020;-64
2023/01/22 00:57:20;;;;;;;29.80;19.80;;;;;;;-2.88;100.00;103160.13;5061997;28;20039;-64
2023/01/22 00:59:46;;;;;;;27.70;20.40;;;;;;;-2.87;100.00;103164.47;5049364;28;20025;-64
2023/01/22 01:02:12;;;;;;;27.33;20.00;;;;;;;-2.90;100.00;103155.75;5048522;28;20508;-64
2023/01/22 01:04:38;;;;;;;33.33;21.43;;;;;;;-2.93;100.00;103155.38;5047520;28;20021;-64
2023/01/22 01:07:03;;;;;;;30.33;20.67;;;;;;;-2.97;100.00;103148.13;5048964;28;20033;-64
2023/01/22 01:09:29;;;;;;;33.10;22.03;;;;;;;-2.97;100.00;103142.16;5061390;28;20059;-64
2023/01/22 01:11:54;;;;;;;30.83;21.90;;;;;;;-3.00;100.00;103145.19;5049455;28;20139;-64
2023/01/22 01:14:19;;;;;;;29.73;21.03;;;;;;;-3.01;100.00;103145.94;5053275;28;20410;-63
2023/01/22 01:16:44;;;;;;;31.17;21.00;;;;;;;-3.02;100.00;103149.16;5051918;28;20040;-64
2023/01/22 01:19:10;;;;;;;30.67;20.43;;;;;;;-3.02;100.00;103141.56;5048274;28;20037;-64
2023/01/22 01:21:37;;;;;;;29.13;20.07;;;;;;;-3.03;100.00;103144.81;5048036;28;20037;-64
2023/01/22 01:24:03;;;;;;;31.03;20.77;;;;;;;-3.07;100.00;103143.53;5048075;28;20456;-64
2023/01/22 01:26:29;;;;;;;34.00;22.03;;;;;;;-3.08;100.00;103149.34;5049449;28;20500;-63
2023/01/22 01:28:54;;;;;;;31.63;20.80;;;;;;;-3.08;100.00;103143.34;5056592;28;20028;-63
2023/01/22 01:31:23;;;;;;;30.77;21.57;;;;;;;-3.09;100.00;103144.03;5057186;28;20028;-64
2023/01/22 01:33:48;;;;;;;29.37;21.03;;;;;;;-3.10;100.00;103130.47;5052919;28;20017;-64
2023/01/22 01:36:19;;;;;;;31.03;21.13;;;;;;;-3.10;100.00;103137.16;5058558;28;20512;-63
2023/01/22 01:38:45;;;;;;;29.93;20.63;;;;;;;-3.09;100.00;103136.44;5048823;28;20074;-63
2023/01/22 01:41:12;;;;;;;29.67;21.70;;;;;;;-3.10;100.00;103127.00;5056292;28;20033;-63
2023/01/22 01:43:38;;;;;;;27.53;19.73;;;;;;;-3.11;100.00;103127.75;5050503;28;20129;-63
2023/01/22 01:46:10;;;;;;;29.53;19.33;;;;;;;-3.11;100.00;103120.13;5047905;28;20551;-63
2023/01/22 01:48:42;;;;;;;26.43;20.13;;;;;;;-3.14;100.00;103113.97;5048279;28;20181;-63
2023/01/22 01:51:23;;;;;;;28.90;20.17;;;;;;;-3.14;100.00;103116.50;5048029;28;20049;-63
2023/01/22 01:53:49;;;;;;;27.88;20.23;;;;;;;-3.14;100.00;103103.81;5059800;28;20469;-63
2023/01/22 01:56:19;;;;;;;29.17;20.40;;;;;;;-3.16;100.00;103105.25;5048219;28;20351;-63
2023/01/22 01:58:46;;;;;;;29.37;19.97;;;;;;;-3.16;100.00;103104.31;5052456;28;20016;-63
2023/01/22 02:01:14;;;;;;;28.87;19.57;;;;;;;-3.17;100.00;103100.91;5053415;28;20036;-63
2023/01/22 02:03:40;;;;;;;29.23;19.50;;;;;;;-3.19;100.00;103094.72;5048306;28;20041;-63
2023/01/22 02:06:10;;;;;;;28.83;20.80;;;;;;;-3.20;100.00;103099.59;5048935;28;20439;-63
2023/01/22 02:08:35;;;;;;;31.17;20.20;;;;;;;-3.19;100.00;103099.78;5048178;28;20040;-63
2023/01/22 02:11:00;;;;;;;26.37;19.30;;;;;;;-3.18;100.00;103096.53;5047532;28;20381;-63
2023/01/22 02:13:29;;;;;;;25.00;18.50;;;;;;;-3.18;100.00;103090.53;5047749;28;20048;-63
2023/01/22 02:15:54;;;;;;;26.07;18.17;;;;;;;-3.18;100.00;103086.38;5050518;28;20087;-64
2023/01/22 02:18:20;;;;;;;26.57;18.83;;;;;;;-3.18;100.00;103085.47;5055429;28;20567;-63
2023/01/22 02:20:54;;;;;;;28.40;20.07;;;;;;;-3.17;100.00;103083.13;5051992;28;20029;-63
2023/01/22 02:23:20;;;;;;;27.80;20.13;;;;;;;-3.17;100.00;103093.28;5047355;28;20032;-63
2023/01/22 02:25:45;;;;;;;27.00;18.87;;;;;;;-3.17;100.00;103089.84;5047401;28;20025;-63
2023/01/22 02:28:10;;;;;;;26.10;18.57;;;;;;;-3.17;100.00;103099.97;5049788;28;20362;-64
2023/01/22 02:30:36;;;;;;;24.23;17.07;;;;;;;-3.18;100.00;103094.00;5055545;28;20027;-64
2023/01/22 02:33:01;;;;;;;22.80;18.00;;;;;;;-3.17;100.00;103093.28;5055774;28;20013;-63
2023/01/22 02:35:26;;;;;;;24.77;18.53;;;;;;;-3.18;100.00;103090.53;5046708;28;20123;-64
2023/01/22 02:37:51;;;;;;;26.07;18.77;;;;;;;-3.18;100.00;103096.53;5047664;28;20036;-64
2023/01/22 02:40:17;;;;;;;24.10;18.13;;;;;;;-3.17;100.00;103100.91;5047172;28;20431;-64
2023/01/22 02:42:42;;;;;;;26.93;18.57;;;;;;;-3.15;100.00;103096.00;5056141;28;20031;-64
2023/01/22 02:45:08;;;;;;;26.27;19.03;;;;;;;-3.16;100.00;103084.03;5047010;28;20033;-64
2023/01/22 02:47:35;;;;;;;24.37;18.23;;;;;;;-3.13;100.00;103089.50;5046697;28;20384;-64
2023/01/22 02:50:00;;;;;;;25.20;17.57;;;;;;;-3.11;100.00;103094.75;5057599;28;20040;-64
2023/01/22 02:52:25;;;;;;;23.83;17.13;;;;;;;-3.11;100.00;103088.03;5049973;28;20138;-64
2023/01/22 02:54:51;;;;;;;25.70;18.10;;;;;;;-3.06;100.00;103106.38;5047161;28;20082;-64
2023/01/22 02:57:16;;;;;;;28.27;19.37;;;;;;;-3.04;100.00;103105.84;5046175;28;20036;-64
2023/01/22 02:59:41;;;;;;;24.40;18.40;;;;;;;-3.00;100.00;103113.84;5047274;28;20083;-64
2023/01/22 03:02:08;;;;;;;24.20;17.30;;;;;;;-2.98;100.00;103110.78;5061595;28;20461;-64
2023/01/22 03:04:33;;;;;;;27.73;19.83;;;;;;;-2.97;100.00;103102.47;5047927;28;20103;-64
2023/01/22 03:06:58;;;;;;;27.50;18.67;;;;;;;-2.95;100.00;103100.09;5059936;28;20100;-64
2023/01/22 03:09:23;;;;;;;27.90;18.93;;;;;;;-2.94;100.00;103102.81;5059617;28;20032;-64
2023/01/22 03:11:49;;;;;;;29.73;18.90;;;;;;;-2.92;100.00;103096.31;5047055;28;20021;-64
2023/01/22 03:22:27;;;;;;;25.80;18.20;;;;;;;-2.95;100.00;103085.75;5046275;28;20094;-64
2023/01/22 03:24:53;;;;;;;27.20;20.20;;;;;;;-2.97;100.00;103082.16;5047213;28;20029;-64
2023/01/22 03:27:21;;;;;;;26.53;19.47;;;;;;;-2.98;100.00;103080.31;5062472;28;20041;-64
2023/01/22 03:29:46;;;;;;;26.87;18.07;;;;;;;-2.99;100.00;103078.50;5046246;28;20029;-64
2023/01/22 03:32:12;;;;;;;26.07;18.23;;;;;;;-2.99;100.00;103078.50;5050570;28;20033;-64
2023/01/22 03:34:38;;;;;;;27.73;19.50;;;;;;;-2.99;100.00;103070.91;5050594;28;20037;-64
2023/01/22 03:37:04;;;;;;;25.23;18.90;;;;;;;-2.97;100.00;103072.00;5060465;28;20396;-64
2023/01/22 03:39:31;;;;;;;24.03;17.17;;;;;;;-2.95;100.00;103062.94;5050523;28;20029;-64
2023/01/22 03:41:56;;;;;;;26.47;19.23;;;;;;;-2.94;100.00;103062.22;5067387;28;20154;-64
2023/01/22 03:44:22;;;;;;;24.50;18.53;;;;;;;-2.93;100.00;103053.88;5059488;28;20120;-64
2023/01/22 03:46:47;;;;;;;26.50;18.57;;;;;;;-2.93;100.00;103043.72;5049595;28;20590;-64
2023/01/22 03:49:13;;;;;;;25.60;18.77;;;;;;;-2.93;100.00;103048.81;5050523;28;20032;-64
2023/01/22 03:51:38;;;;;;;25.57;18.47;;;;;;;-2.92;100.00;103054.78;5050002;28;20276;-63
2023/01/22 03:54:04;;;;;;;26.50;18.40;;;;;;;-2.95;100.00;103055.31;5050114;28;20106;-63
2023/01/22 03:56:30;;;;;;;26.23;18.47;;;;;;;-2.95;100.00;103067.13;5050009;28;20086;-63
2023/01/22 03:58:55;;;;;;;25.37;18.53;;;;;;;-2.97;100.00;103061.84;5050564;28;20028;-63
2023/01/22 04:01:23;;;;;;;23.47;17.00;;;;;;;-2.98;100.00;103057.47;5062393;28;20046;-63
2023/01/22 04:03:49;;;;;;;24.23;18.03;;;;;;;-3.02;100.00;103063.81;5050212;28;20033;-63
2023/01/22 04:06:16;;;;;;;26.10;17.80;;;;;;;-3.02;100.00;103055.28;5049945;28;20021;-63
2023/01/22 04:08:43;;;;;;;24.70;18.37;;;;;;;-3.04;100.00;103064.34;5050180;28;20028;-63
2023/01/22 04:11:10;;;;;;;24.70;18.10;;;;;;;-3.06;100.00;103045.50;5050026;28;20099;-63
2023/01/22 04:13:37;;;;;;;23.10;17.30;;;;;;;-3.09;100.00;103061.22;5049451;28;20082;-63
2023/01/22 04:16:03;;;;;;;25.90;18.50;;;;;;;-3.09;100.00;103075.53;5066365;28;20031;-63
2023/01/22 04:18:29;;;;;;;23.73;17.60;;;;;;;-3.08;100.00;103067.22;5069535;28;20036;-63
2023/01/22 04:20:54;;;;;;;24.90;18.67;;;;;;;-3.07;100.00;103067.41;5050534;28;20441;-63
2023/01/22 04:23:20;;;;;;;23.57;18.00;;;;;;;-3.07;100.00;103069.03;5049676;28;20458;-63
2023/01/22 04:25:46;;;;;;;27.37;19.30;;;;;;;-3.07;100.00;103049.66;5049707;28;20587;-63
2023/01/22 04:28:13;;;;;;;24.73;17.73;;;;;;;-3.03;100.00;103053.47;5059393;28;20039;-63
2023/01/22 04:30:39;;;;;;;24.90;18.13;;;;;;;-3.02;100.00;103055.28;5049559;28;20024;-63
2023/01/22 04:33:05;;;;;;;23.57;17.53;;;;;;;-3.01;100.00;103054.56;5053895;28;20044;-63
2023/01/22 04:35:30;;;;;;;24.40;17.17;;;;;;;-3.01;100.00;103054.56;5049618;28;20029;-63
2023/01/22 04:37:57;;;;;;;26.07;18.27;;;;;;;-2.99;100.00;103057.28;5049213;28;20493;-63
2023/01/22 04:40:22;;;;;;;27.97;18.37;;;;;;;-2.96;100.00;103063.66;5048988;28;20453;-63
2023/01/22 04:42:48;;;;;;;24.37;18.73;;;;;;;-2.93;100.00;103056.41;5050020;28;20251;-63
2023/01/22 04:45:14;;;;;;;24.47;17.60;;;;;;;-2.92;100.00;103050.63;5049205;28;20033;-63
2023/01/22 04:47:41;;;;;;;24.50;18.07;;;;;;;-2.90;100.00;103044.09;5062243;28;20032;-63
2023/01/22 04:50:10;;;;;;;24.93;18.90;;;;;;;-2.86;100.00;103047.03;5048207;28;20132;-63
2023/01/22 04:52:35;;;;;;;26.70;17.73;;;;;;;-2.83;100.00;103034.69;5049236;28;20083;-63
2023/01/22 04:55:00;;;;;;;22.07;16.40;;;;;;;-2.81;100.00;103043.41;5048811;28;20564;-63
2023/01/22 04:57:26;;;;;;;22.17;17.13;;;;;;;-2.78;100.00;103039.63;5048840;28;20040;-62
2023/01/22 04:59:51;;;;;;;23.97;17.77;;;;;;;-2.75;100.00;103046.69;5047689;28;20397;-63
2023/01/22 05:02:16;;;;;;;24.53;17.93;;;;;;;-2.75;100.00;103039.06;5047421;28;20031;-63
2023/01/22 05:04:41;;;;;;;23.17;16.77;;;;;;;-2.71;100.00;103046.34;5048756;28;20024;-63
2023/01/22 05:07:07;;;;;;;23.30;17.47;;;;;;;-2.69;100.00;103049.06;5048704;28;20040;-63
2023/01/22 05:09:32;;;;;;;25.00;16.97;;;;;;;-2.67;100.00;103040.94;5048517;28;20028;-63
2023/01/22 05:11:57;;;;;;;23.10;17.47;;;;;;;-2.66;100.00;103042.72;5048230;28;20024;-63
2023/01/22 05:14:23;;;;;;;27.00;17.23;;;;;;;-2.64;100.00;103042.91;5052420;28;20042;-63
2023/01/22 05:16:48;;;;;;;24.07;16.33;;;;;;;-2.63;100.00;103048.91;5057499;28;20028;-63
2023/01/22 05:19:13;;;;;;;23.00;17.37;;;;;;;-2.62;100.00;103045.63;5048365;28;20035;-63
2023/01/22 05:21:38;;;;;;;21.43;16.83;;;;;;;-2.61;100.00;103047.47;5048550;28;20064;-63
2023/01/22 05:24:04;;;;;;;21.57;17.40;;;;;;;-2.61;100.00;103052.56;5047942;28;20442;-63
2023/01/22 05:26:29;;;;;;;22.17;16.20;;;;;;;-2.60;100.00;103056.88;5048550;28;20029;-63
2023/01/22 05:28:54;;;;;;;23.03;17.37;;;;;;;-2.59;100.00;103046.03;5065594;28;20092;-63
2023/01/22 05:31:20;;;;;;;21.53;16.03;;;;;;;-2.59;100.00;103056.19;5057116;28;20032;-63
2023/01/22 05:33:45;;;;;;;24.53;16.80;;;;;;;-2.59;100.00;103057.06;5047899;28;20480;-63
2023/01/22 05:36:11;;;;;;;21.87;16.40;;;;;;;-2.58;100.00;103064.00;5054995;28;20029;-63
2023/01/22 05:38:37;;;;;;;21.40;16.23;;;;;;;-2.57;100.00;103064.88;5054883;28;20048;-63
2023/01/22 05:41:02;;;;;;;20.93;15.50;;;;;;;-2.57;100.00;103065.78;5053853;28;20032;-63
2023/01/22 05:43:28;;;;;;;20.20;15.37;;;;;;;-2.56;100.00;103066.72;5047716;28;20024;-63
2023/01/22 05:45:53;;;;;;;19.07;15.27;;;;;;;-2.55;100.00;103083.75;5048731;28;20036;-63
2023/01/22 05:48:18;;;;;;;20.03;15.17;;;;;;;-2.54;100.00;103076.31;5048037;28;20107;-63
2023/01/22 05:50:43;;;;;;;21.30;15.43;;;;;;;-2.53;100.00;103072.16;5047998;28;20049;-63
2023/01/22 05:53:09;;;;;;;19.87;14.43;;;;;;;-2.53;100.00;103072.16;5047936;28;20227;-63
2023/01/22 05:55:34;;;;;;;21.90;14.90;;;;;;;-2.51;100.00;103075.78;5046842;28;20111;-63
2023/01/22 05:58:00;;;;;;;21.47;15.80;;;;;;;-2.51;100.00;103075.78;5047704;28;20029;-63
2023/01/22 06:00:26;;;;;;;20.00;14.87;;;;;;;-2.51;100.00;103073.25;5047630;28;20033;-64
2023/01/22 06:02:56;;;;;;;20.53;13.80;;;;;;;-2.49;100.00;103074.34;5047558;28;20064;-63
2023/01/22 06:05:22;;;;;;;19.10;15.47;;;;;;;-2.47;100.00;103080.53;5047246;28;20040;-63
2023/01/22 06:07:47;;;;;;;23.77;16.63;;;;;;;-2.46;100.00;103076.34;5049234;28;20029;-63
2023/01/22 06:10:13;;;;;;;21.23;15.77;;;;;;;-2.46;100.00;103072.19;5047569;28;20033;-63
2023/01/22 06:12:38;;;;;;;20.20;16.43;;;;;;;-2.46;100.00;103066.19;5060647;28;20051;-66
2023/01/22 06:15:04;;;;;;;20.27;16.07;;;;;;;-2.46;100.00;103069.63;5047584;28;20079;-63
2023/01/22 06:17:29;;;;;;;19.97;15.13;;;;;;;-2.43;100.00;103072.53;5051281;28;20499;-63
2023/01/22 06:19:54;;;;;;;20.03;15.57;;;;;;;-2.43;100.00;103075.06;5052742;28;20052;-63
2023/01/22 06:22:20;;;;;;;20.60;15.30;;;;;;;-2.44;100.00;103068.19;5049983;28;20025;-63
2023/01/22 06:24:45;;;;;;;19.67;15.77;;;;;;;-2.42;100.00;103071.84;5048827;28;20025;-63
2023/01/22 06:27:10;;;;;;;20.87;15.73;;;;;;;-2.41;100.00;103081.25;5051599;28;20016;-63
2023/01/22 06:29:35;;;;;;;21.10;16.10;;;;;;;-2.39;100.00;103080.56;5050931;28;20486;-63
2023/01/22 06:32:01;;;;;;;20.37;16.13;;;;;;;-2.39;100.00;103086.50;5050814;28;20016;-63
2023/01/22 06:34:26;;;;;;;20.40;14.93;;;;;;;-2.38;100.00;103087.44;5048839;28;20100;-64
2023/01/22 06:36:51;;;;;;;22.60;16.60;;;;;;;-2.37;100.00;103076.53;5048133;28;20362;-63
2023/01/22 06:39:17;;;;;;;21.17;15.40;;;;;;;-2.37;100.00;103069.84;5055824;28;20039;-63
2023/01/22 06:41:42;;;;;;;24.97;17.57;;;;;;;-2.35;100.00;103076.00;5050629;28;20548;-63
2023/01/22 06:44:07;;;;;;;21.13;16.07;;;;;;;-2.33;100.00;103076.19;5048856;28;20044;-63
2023/01/22 06:46:32;;;;;;;22.60;15.83;;;;;;;-2.34;100.00;103072.72;5046857;28;20029;-63
2023/01/22 06:49:00;;;;;;;23.07;16.10;;;;;;;-2.33;100.00;103073.66;5050620;28;20025;-63
2023/01/22 06:51:25;;;;;;;21.90;16.67;;;;;;;-2.32;100.00;103078.03;5046379;28;20367;-63
2023/01/22 06:53:51;;;;;;;17.20;14.73;;;;;;;-2.32;100.00;103084.00;5047872;28;20025;-63
2023/01/22 06:56:16;;;;;;;19.60;16.10;;;;;;;-2.31;100.00;103084.91;5047628;28;20068;-63
2023/01/22 06:58:41;;;;;;;21.40;17.43;;;;;;;-2.31;100.00;103090.91;5048338;28;20122;-63
2023/01/22 07:01:06;;;;;;;20.53;16.77;;;;;;;-2.30;100.00;103086.72;5048857;28;20116;-63
2023/01/22 07:03:32;;;;;;;23.37;16.40;;;;;;;-2.28;100.00;103089.47;5048776;28;20044;-63
2023/01/22 07:05:59;;;;;;;21.00;16.57;;;;;;;-2.28;100.00;103092.00;5052891;28;20411;-63
2023/01/22 07:08:25;;;;;;;20.67;17.20;;;;;;;-2.27;100.00;103092.19;5056714;28;20485;-63
2023/01/22 07:10:50;;;;;;;23.23;16.97;;;;;;;-2.28;100.00;103095.44;5055518;28;20039;-63
2023/01/22 07:13:15;;;;;;;21.73;16.43;;;;;;;-2.30;100.00;103086.72;5062319;28;20657;-63
2023/01/22 07:15:41;;;;;;;19.20;15.63;;;;;;;-2.28;100.00;103095.44;5060115;28;20024;-63
2023/01/22 07:18:09;;;;;;;22.30;16.87;;;;;;;-2.28;100.00;103090.34;5065378;28;20039;-63
2023/01/22 07:20:34;;;;;;;21.73;16.33;;;;;;;-2.27;100.00;103089.66;5061320;28;20606;-63
2023/01/22 07:23:00;;;;;;;22.83;15.70;;;;;;;-2.28;100.00;103090.34;5062229;28;20060;-63
2023/01/22 07:25:26;;;;;;;26.07;16.73;;;;;;;-2.26;100.00;103093.06;5056213;28;20400;-63
2023/01/22 07:27:51;;;;;;;20.63;16.93;;;;;;;-2.27;100.00;103091.28;5060931;28;20040;-64
2023/01/22 07:30:17;;;;;;;22.20;16.70;;;;;;;-2.25;100.00;103090.75;5054661;28;20393;-63
2023/01/22 07:32:42;;;;;;;23.00;16.47;;;;;;;-2.25;100.00;103090.75;5051331;28;20040;-63
2023/01/22 07:35:08;;;;;;;19.90;15.83;;;;;;;-2.25;100.00;103095.84;5055586;28;20052;-63
2023/01/22 07:37:35;;;;;;;22.90;16.53;;;;;;;-2.24;100.00;103100.19;5051596;28;20036;-63
2023/01/22 07:40:00;;;;;;;21.03;16.37;;;;;;;-2.23;100.00;103096.91;5058747;28;20024;-63
2023/01/22 07:42:25;;;;;;;23.53;16.73;;;;;;;-2.22;100.00;103088.56;5052512;28;20477;-63
2023/01/22 07:44:50;;;;;;;24.23;16.87;;;;;;;-2.20;100.00;103094.75;5057546;28;20048;-63
2023/01/22 07:47:16;;;;;;;21.07;16.30;;;;;;;-2.21;100.00;103092.91;5061512;28;20140;-63
2023/01/22 07:49:41;;;;;;;19.93;15.77;;;;;;;-2.19;100.00;103101.63;5056917;28;20203;-63
2023/01/22 07:52:06;;;;;;;21.17;15.63;;;;;;;-2.17;100.00;103101.81;5051952;28;20485;-62
2023/01/22 07:54:35;;;;;;;28.93;17.60;;;;;;;-2.18;100.00;103103.44;5054944;28;20055;-63
2023/01/22 07:57:01;;;;;;;19.27;16.13;;;;;;;-2.13;100.00;103105.63;5054285;28;20118;-63
2023/01/22 07:59:26;;;;;;;20.97;16.00;;;;;;;-2.14;100.00;103112.34;5053298;28;20087;-63
2023/01/22 08:01:53;;;;;;;23.00;15.87;;;;;;;-2.13;100.00;103108.19;5055449;28;20318;-63
2023/01/22 08:04:19;;;;;;;17.67;15.13;;;;;;;-2.13;100.00;103113.25;5052697;28;20135;-64
2023/01/22 08:06:44;;;;;;;18.90;14.80;;;;;;;-2.09;100.00;103115.44;5060908;28;20432;-63
2023/01/22 08:09:09;;;;;;;17.60;14.50;;;;;;;-2.08;100.00;103109.63;5060176;28;20029;-63
2023/01/22 08:11:35;;;;;;;18.83;14.77;;;;;;;-2.07;100.00;103099.66;5054918;28;20029;-63
2023/01/22 08:14:00;;;;;;;19.80;15.07;;;;;;;-2.03;100.00;103111.09;5055774;28;20530;-63
2023/01/22 08:16:25;;;;;;;18.00;15.07;;;;;;;-2.00;100.00;103114.03;5053836;28;20449;-63
2023/01/22 08:18:50;;;;;;;20.93;16.37;;;;;;;-1.97;100.00;103118.53;5055649;28;20075;-64
2023/01/22 08:21:16;;;;;;;19.30;15.33;;;;;;;-1.92;100.00;103121.66;5054714;28;20067;-63
2023/01/22 08:23:41;;;;;;;21.40;16.27;;;;;;;-1.88;100.00;103118.75;5055965;28;20453;-63
2023/01/22 08:26:06;;;;;;;18.50;14.33;;;;;;;-1.83;100.00;103117.66;5049804;28;20025;-63
2023/01/22 08:28:32;;;;;;;15.00;12.93;;;;;;;-1.82;100.00;103117.81;5050256;28;20029;-63
2023/01/22 08:31:02;;;;;;;18.63;14.20;;;;;;;-1.78;100.00;103119.09;5051805;28;20447;-63
2023/01/22 08:33:30;;;;;;;19.50;14.63;;;;;;;-1.75;100.00;103128.75;5048841;28;20423;-63
2023/01/22 08:35:55;;;;;;;18.47;14.37;;;;;;;-1.74;100.00;103133.09;5057821;28;20024;-63
2023/01/22 08:38:21;;;;;;;15.93;13.20;;;;;;;-1.73;100.00;103132.38;5051034;28;20032;-63
2023/01/22 08:40:50;;;;;;;18.90;13.87;;;;;;;-1.72;100.00;103132.56;5051234;28;20064;-63
2023/01/22 08:43:15;;;;;;;15.97;13.10;;;;;;;-1.72;100.00;103127.47;5050713;28;20095;-63
2023/01/22 08:45:41;;;;;;;17.70;13.50;;;;;;;-1.71;100.00;103124.19;5049459;28;20025;-63
2023/01/22 08:48:06;;;;;;;17.17;13.57;;;;;;;-1.70;100.00;103120.94;5049389;28;20127;-63
2023/01/22 08:50:31;;;;;;;15.93;13.67;;;;;;;-1.68;100.00;103123.66;5054600;28;20100;-63
2023/01/22 08:52:57;;;;;;;16.33;12.83;;;;;;;-1.67;100.00;103124.59;5047264;28;20024;-63
2023/01/22 08:55:23;;;;;;;15.90;13.43;;;;;;;-1.67;100.00;103125.47;5046828;28;20016;-63
2023/01/22 08:57:55;;;;;;;16.00;12.17;;;;;;;-1.65;100.00;103129.09;5049210;28;20061;-63
2023/01/22 09:00:22;;;;;;;16.97;12.97;;;;;;;-1.64;100.00;103136.03;5050331;28;20159;-63
2023/01/22 09:02:48;;;;;;;15.67;12.60;;;;;;;-1.64;100.00;103127.47;5051195;28;20075;-63
2023/01/22 09:05:14;;;;;;;17.20;12.83;;;;;;;-1.63;100.00;103125.13;5053843;28;20041;-63
2023/01/22 09:07:39;;;;;;;16.17;12.23;;;;;;;-1.62;100.00;103133.66;5054153;28;20032;-63
2023/01/22 09:10:07;;;;;;;15.07;12.47;;;;;;;-1.62;100.00;103136.22;5054383;28;20278;-63
2023/01/22 09:12:35;;;;;;;17.77;12.70;;;;;;;-1.61;100.00;103127.84;5047666;28;20032;-64
2023/01/22 09:15:01;;;;;;;15.33;12.23;;;;;;;-1.61;100.00;103130.38;5047306;28;20044;-63
2023/01/22 09:17:27;;;;;;;14.77;12.10;;;;;;;-1.61;100.00;103127.84;5046522;28;20178;-63
2023/01/22 09:19:52;;;;;;;16.83;11.17;;;;;;;-1.60;100.00;103129.66;5048683;28;20031;-63
2023/01/22 09:22:17;;;;;;;14.00;11.37;;;;;;;-1.59;100.00;103137.47;5053869;28;20543;-63
2023/01/22 09:24:43;;;;;;;14.40;11.70;;;;;;;-1.56;100.00;103139.47;5051117;28;20488;-63
2023/01/22 09:27:08;;;;;;;16.97;12.00;;;;;;;-1.54;100.00;103144.72;5047120;28;20036;-63
2023/01/22 09:29:33;;;;;;;14.50;11.23;;;;;;;-1.55;100.00;103136.22;5051314;28;20031;-63
2023/01/22 09:31:59;;;;;;;13.97;11.53;;;;;;;-1.55;100.00;103136.22;5056216;28;20423;-63
2023/01/22 09:34:24;;;;;;;14.93;11.97;;;;;;;-1.52;100.00;103143.28;5046736;28;20036;-64
2023/01/22 09:36:50;;;;;;;14.37;11.80;;;;;;;-1.50;100.00;103145.28;5055065;28;20103;-63
2023/01/22 09:39:15;;;;;;;14.70;11.40;;;;;;;-1.50;100.00;103145.28;5046700;28;20041;-63
2023/01/22 09:41:47;;;;;;;15.53;11.67;;;;;;;-1.48;100.00;103145.47;5046220;28;20029;-62
2023/01/22 09:44:20;;;;;;;15.97;11.90;;;;;;;-1.47;100.00;103143.09;5045886;28;20028;-63
2023/01/22 09:47:05;;;;;;;15.43;11.77;;;;;;;-1.47;100.00;103145.66;5045860;28;20473;-64
2023/01/22 09:49:41;;;;;;;14.83;11.30;;;;;;;-1.48;100.00;103151.47;5046197;28;20063;-63
2023/01/22 09:52:09;;;;;;;14.50;11.90;;;;;;;-1.50;100.00;103145.28;5047904;28;20408;-64
2023/01/22 09:54:35;;;;;;;13.90;11.70;;;;;;;-1.51;100.00;103146.00;5046589;28;20020;-64
2023/01/22 09:57:04;;;;;;;15.00;11.40;;;;;;;-1.51;100.00;103138.38;5047062;28;20043;-63
2023/01/22 09:59:42;;;;;;;16.90;12.23;;;;;;;-1.50;100.00;103144.38;5048806;28;20024;-63
2023/01/22 10:02:34;;;;;;;16.37;13.60;;;;;;;-1.49;100.00;103143.63;5048232;28;20583;-63
2023/01/22 10:05:05;;;;;;;15.40;11.67;;;;;;;-1.48;100.00;103148.94;5049632;28;20033;-63
2023/01/22 10:07:38;;;;;;;13.07;11.23;;;;;;;-1.47;100.00;103145.66;5046804;28;20064;-64
2023/01/22 10:10:24;;;;;;;14.77;11.67;;;;;;;-1.47;100.00;103160.91;5059196;28;20534;-63
2023/01/22 10:12:54;;;;;;;14.10;12.10;;;;;;;-1.47;100.00;103153.28;5052889;28;20021;-63
2023/01/22 10:15:23;;;;;;;14.98;11.95;;;;;;;-1.46;100.00;103157.63;5060657;28;20436;-64
2023/01/22 10:17:48;;;;;;;14.27;11.17;;;;;;;-1.42;100.00;103161.44;5052659;28;20082;-66
2023/01/22 10:20:17;;;;;;;17.37;11.93;;;;;;;-1.43;100.00;103157.09;5050053;28;20028;-65
2023/01/22 10:22:43;;;;;;;15.53;11.53;;;;;;;-1.41;100.00;103160.72;5051017;28;20029;-64
2023/01/22 10:25:13;;;;;;;14.90;11.50;;;;;;;-1.40;100.00;103159.09;5049847;28;20031;-65
2023/01/22 10:27:38;;;;;;;13.70;11.90;;;;;;;-1.37;100.00;103162.00;5049617;28;20044;-66
2023/01/22 10:30:13;;;;;;;16.10;11.97;;;;;;;-1.36;100.00;103148.53;5056965;28;20021;-65
2023/01/22 10:32:38;;;;;;;13.83;11.67;;;;;;;-1.36;100.00;103151.09;5056042;28;20028;-65
2023/01/22 10:35:15;;;;;;;17.23;12.87;;;;;;;-1.35;100.00;103151.25;5048624;28;20025;-65
2023/01/22 10:37:48;;;;;;;13.07;11.33;;;;;;;-1.35;100.00;103145.28;5051461;28;20047;-65
2023/01/22 10:40:39;;;;;;;13.17;11.77;;;;;;;-1.34;100.00;103153.09;5048563;28;20024;-65
2023/01/22 10:43:14;;;;;;;16.02;12.45;;;;;;;-1.34;100.00;103148.00;5051130;28;20083;-65
2023/01/22 10:45:58;;;;;;;13.23;11.37;;;;;;;-1.33;100.00;103159.06;5051010;28;20032;-65
2023/01/22 10:48:24;;;;;;;13.53;11.53;;;;;;;-1.32;100.00;103155.81;5050560;28;20021;-65
2023/01/22 10:51:06;;;;;;;13.70;11.90;;;;;;;-1.31;100.00;103155.06;5047234;28;20041;-66
2023/01/22 10:53:35;;;;;;;15.27;11.67;;;;;;;-1.32;100.00;103155.81;5051996;28;20479;-65
2023/01/22 10:56:03;;;;;;;12.87;11.57;;;;;;;-1.29;100.00;103165.44;5050587;28;20029;-66
2023/01/22 10:58:31;;;;;;;12.23;10.73;;;;;;;-1.30;100.00;103164.53;5047493;28;20127;-65
2023/01/22 11:01:02;;;;;;;14.53;10.93;;;;;;;-1.28;100.00;103163.09;5053772;28;20478;-65
2023/01/22 11:03:34;;;;;;;13.65;11.38;;;;;;;-1.27;100.00;103148.72;5045888;28;20037;-66
2023/01/22 11:06:14;;;;;;;15.60;11.60;;;;;;;-1.27;100.00;103149.63;5051139;28;20036;-65
2023/01/22 11:08:44;;;;;;;12.33;11.00;;;;;;;-1.25;100.00;103150.72;5052720;28;20029;-65